Eaton Bray, United Kingdom
Current Conditions -  °F | °C
As of 1:20 AM on Tuesday 25 Nov 2014 (Local Time) from EGGW Reporting Station
Haze Haze  
Wind Chill: 36°   Ceiling: Unl
Heat Index: 36°   Visibility: 2.5mi
Dew Point: 36°   Wind: 3mph
Humidity: 100%   Direction: 360°N
Pressure: 30.3"   Gusts: NA
Location:  51.88°N, 0.59°W
Report Text: EGGW 250120Z AUTO 36003KT 4100 BR NCD 02/02 Q1026
Loading
Personal Weather Stations






























Interactive Weather Map New forecast layout! Learn more

10-Day Weather Forecast

Advertisements
Track Severe Weather on mobile